createdAt,value
2023-02-14T00:00:05.395Z,65.80
2023-02-14T00:01:05.398Z,62.60
2023-02-14T00:02:05.474Z,68.20
2023-02-14T00:03:05.405Z,103.90
2023-02-14T00:04:05.451Z,117.90
2023-02-14T00:05:05.371Z,89.10
2023-02-14T00:06:05.342Z,74.50
2023-02-14T00:07:05.343Z,111.50
2023-02-14T00:08:05.343Z,70.40
2023-02-14T00:09:05.318Z,94.20
2023-02-14T00:10:05.292Z,85.00
2023-02-14T00:11:05.280Z,121.40
2023-02-14T00:12:05.275Z,67.10
2023-02-14T00:13:05.319Z,74.20
2023-02-14T00:14:05.239Z,86.10
2023-02-14T00:15:05.269Z,68.40
2023-02-14T00:16:05.265Z,134.10
2023-02-14T00:17:05.220Z,89.70
2023-02-14T00:18:05.191Z,109.60
2023-02-14T00:19:05.256Z,93.70
2023-02-14T00:20:05.174Z,126.40
2023-02-14T00:21:05.191Z,87.10
2023-02-14T00:22:05.179Z,154.70
2023-02-14T00:23:05.145Z,92.60
2023-02-14T00:24:05.186Z,100.60
2023-02-14T00:25:05.169Z,112.10
2023-02-14T00:26:05.155Z,94.00
2023-02-14T00:27:05.107Z,54.40
2023-02-14T00:28:05.104Z,48.10
2023-02-14T00:29:05.095Z,74.50
2023-02-14T00:30:05.156Z,70.10
2023-02-14T00:31:05.170Z,100.40
2023-02-14T00:32:05.090Z,88.50
2023-02-14T00:33:05.042Z,130.80
2023-02-14T00:34:05.013Z,192.20
2023-02-14T00:35:05.058Z,82.00
2023-02-14T00:36:05.017Z,54.10
2023-02-14T00:39:11.357Z,43.00
2023-02-14T00:40:11.307Z,40.60
2023-02-14T00:41:11.321Z,112.60
2023-02-14T00:42:11.316Z,70.00
2023-02-14T00:43:11.302Z,67.10
2023-02-14T00:44:11.259Z,126.60
2023-02-14T00:45:11.248Z,172.80
2023-02-14T00:46:11.315Z,83.40
2023-02-14T00:47:11.231Z,121.40
2023-02-14T00:48:11.252Z,119.90
2023-02-14T00:49:11.207Z,110.10
2023-02-14T00:50:11.198Z,155.30
2023-02-14T00:51:11.220Z,149.80
2023-02-14T00:52:11.171Z,104.40
2023-02-14T00:53:11.203Z,135.50
2023-02-14T00:54:11.141Z,118.90
2023-02-14T00:55:11.170Z,120.00
2023-02-14T00:56:11.120Z,201.50
2023-02-14T00:57:11.129Z,209.90
2023-02-14T00:58:11.157Z,134.00
2023-02-14T00:59:11.189Z,69.20
2023-02-14T01:00:11.123Z,148.40
2023-02-14T01:01:11.131Z,122.10
2023-02-14T01:02:11.122Z,109.40
2023-02-14T01:03:11.095Z,93.00
2023-02-14T01:04:11.044Z,124.10
2023-02-14T01:05:11.058Z,184.00
2023-02-14T01:06:11.042Z,125.50
2023-02-14T01:07:11.017Z,145.10
2023-02-14T01:08:11.040Z,87.40
2023-02-14T01:09:11.042Z,133.80
2023-02-14T01:10:10.995Z,114.40
2023-02-14T01:11:11.232Z,114.00
2023-02-14T01:12:10.954Z,80.30
2023-02-14T01:13:10.960Z,92.20
2023-02-14T01:14:10.934Z,104.80
2023-02-14T01:15:10.958Z,96.50
2023-02-14T01:16:10.948Z,106.70
2023-02-14T01:17:10.946Z,112.70
2023-02-14T01:18:10.927Z,93.90
2023-02-14T01:19:10.888Z,92.50
2023-02-14T01:20:13.888Z,94.30
2023-02-14T01:21:10.845Z,76.20
2023-02-14T01:22:10.896Z,115.50
2023-02-14T01:23:10.857Z,41.20
2023-02-14T01:24:10.805Z,82.90
2023-02-14T01:25:10.796Z,44.80
2023-02-14T01:26:10.811Z,83.30
2023-02-14T01:27:10.825Z,60.90
2023-02-14T01:28:10.776Z,47.20
2023-02-14T01:29:10.787Z,49.70
2023-02-14T01:30:10.807Z,62.60
2023-02-14T01:31:10.814Z,77.00
2023-02-14T01:32:10.827Z,48.40
2023-02-14T01:33:10.717Z,47.80
2023-02-14T01:34:10.703Z,50.80
2023-02-14T01:35:10.717Z,59.80
2023-02-14T01:36:10.692Z,61.10
2023-02-14T01:37:10.679Z,34.40
2023-02-14T01:38:10.710Z,63.30
2023-02-14T01:39:10.661Z,45.60
2023-02-14T01:40:10.672Z,53.00
2023-02-14T01:41:10.672Z,45.20
2023-02-14T01:42:10.622Z,50.30
2023-02-14T01:43:10.594Z,84.50
2023-02-14T01:44:10.628Z,43.00
2023-02-14T01:45:10.579Z,65.80
2023-02-14T01:46:10.629Z,46.60
2023-02-14T01:47:10.554Z,54.50
2023-02-14T01:48:10.568Z,60.10
2023-02-14T01:49:10.624Z,35.80
2023-02-14T01:50:10.582Z,49.60
2023-02-14T01:51:10.518Z,29.90
2023-02-14T01:52:10.523Z,36.30
2023-02-14T01:53:10.505Z,35.90
2023-02-14T01:54:10.509Z,49.00
2023-02-14T01:55:10.545Z,48.90
2023-02-14T01:56:10.470Z,54.60
2023-02-14T01:57:10.459Z,71.70
2023-02-14T01:58:10.451Z,86.10
2023-02-14T01:59:10.449Z,46.10
2023-02-14T02:00:10.466Z,50.40
2023-02-14T02:01:10.482Z,47.50
2023-02-14T02:02:10.427Z,36.00
2023-02-14T02:03:10.402Z,49.40
2023-02-14T02:04:10.462Z,43.40
2023-02-14T02:05:10.372Z,32.20
2023-02-14T02:06:10.394Z,43.80
2023-02-14T02:07:10.378Z,57.50
2023-02-14T02:08:10.332Z,50.60
2023-02-14T02:09:10.366Z,53.60
2023-02-14T02:10:10.308Z,40.10
2023-02-14T02:11:10.308Z,52.40
2023-02-14T02:12:10.312Z,54.40
2023-02-14T02:13:10.262Z,54.70
2023-02-14T02:14:10.265Z,41.20
2023-02-14T02:15:10.275Z,45.60
2023-02-14T02:16:10.273Z,36.00
2023-02-14T02:17:10.273Z,34.00
2023-02-14T02:18:10.233Z,51.50
2023-02-14T02:19:10.203Z,49.20
2023-02-14T02:20:10.202Z,31.90
2023-02-14T02:21:10.228Z,70.20
2023-02-14T02:22:10.174Z,42.40
2023-02-14T02:23:10.160Z,38.30
2023-02-14T02:24:10.155Z,48.70
2023-02-14T02:25:10.154Z,39.80
2023-02-14T02:26:10.166Z,55.20
2023-02-14T02:27:10.177Z,26.40
2023-02-14T02:28:10.160Z,49.90
2023-02-14T02:29:10.206Z,32.60
2023-02-14T02:30:10.102Z,45.40
2023-02-14T02:31:10.140Z,34.80
2023-02-14T02:32:10.302Z,46.90
2023-02-14T02:33:10.045Z,45.80
2023-02-14T02:34:10.070Z,61.20
2023-02-14T02:35:10.044Z,40.90
2023-02-14T02:36:10.022Z,36.10
2023-02-14T02:37:10.000Z,70.30
2023-02-14T02:38:10.015Z,41.90
2023-02-14T02:39:09.986Z,86.00
2023-02-14T02:40:09.987Z,43.10
2023-02-14T02:41:09.990Z,84.80
2023-02-14T02:42:09.937Z,58.90
2023-02-14T02:43:09.949Z,44.80
2023-02-14T02:44:09.932Z,40.80
2023-02-14T02:45:09.917Z,43.90
2023-02-14T02:46:10.001Z,57.20
2023-02-14T02:47:09.902Z,35.70
2023-02-14T02:48:09.896Z,68.00
2023-02-14T02:49:09.866Z,22.90
2023-02-14T02:50:09.892Z,26.90
2023-02-14T02:51:09.861Z,28.20
2023-02-14T02:52:09.819Z,37.70
2023-02-14T02:53:09.831Z,64.90
2023-02-14T02:54:09.825Z,47.70
2023-02-14T02:55:09.832Z,34.10
2023-02-14T02:56:09.829Z,27.50
2023-02-14T02:57:09.804Z,79.80
2023-02-14T02:58:09.814Z,48.90
2023-02-14T02:59:09.738Z,29.90
2023-02-14T03:00:09.750Z,33.20
2023-02-14T03:01:09.896Z,37.10
2023-02-14T03:02:09.702Z,53.00
2023-02-14T03:03:09.707Z,31.30
2023-02-14T03:04:09.692Z,30.80
2023-02-14T03:05:09.730Z,30.40
2023-02-14T03:06:09.691Z,27.90
2023-02-14T03:07:09.685Z,43.40
2023-02-14T03:08:09.671Z,41.00
2023-02-14T03:09:09.649Z,33.90
2023-02-14T03:10:09.648Z,44.80
2023-02-14T03:11:09.614Z,36.30
2023-02-14T03:12:09.639Z,53.00
2023-02-14T03:13:09.663Z,117.80
2023-02-14T03:14:09.621Z,74.40
2023-02-14T03:15:09.566Z,77.20
2023-02-14T03:16:09.756Z,40.80
2023-02-14T03:17:09.553Z,94.10
2023-02-14T03:18:09.569Z,57.00
2023-02-14T03:19:09.530Z,34.80
2023-02-14T03:20:09.530Z,43.60
2023-02-14T03:21:09.572Z,42.60
2023-02-14T03:22:09.523Z,34.30
2023-02-14T03:23:09.548Z,33.70
2023-02-14T03:24:09.482Z,65.30
2023-02-14T03:25:09.445Z,83.00
2023-02-14T03:26:09.492Z,108.60
2023-02-14T03:27:09.417Z,157.00
2023-02-14T03:28:09.430Z,164.30
2023-02-14T03:29:09.434Z,139.30
2023-02-14T03:30:09.475Z,75.70
2023-02-14T03:31:09.516Z,71.60
2023-02-14T03:32:09.562Z,140.30
2023-02-14T03:33:09.364Z,93.70
2023-02-14T03:34:09.386Z,116.30
2023-02-14T03:35:09.376Z,128.50
2023-02-14T03:36:09.319Z,110.00
2023-02-14T03:37:09.329Z,92.80
2023-02-14T03:38:09.389Z,86.80
2023-02-14T03:39:09.298Z,118.70
2023-02-14T03:40:09.273Z,107.80
2023-02-14T03:41:09.348Z,97.90
2023-02-14T03:42:09.249Z,139.40
2023-02-14T03:43:09.272Z,191.30
2023-02-14T03:44:09.250Z,125.60
2023-02-14T03:45:09.323Z,81.60
2023-02-14T03:46:09.320Z,78.70
2023-02-14T03:47:09.236Z,157.80
2023-02-14T03:48:09.217Z,178.70
2023-02-14T03:49:09.185Z,129.00
2023-02-14T03:50:09.174Z,180.90
2023-02-14T03:51:09.153Z,92.30
2023-02-14T03:52:09.250Z,82.60
2023-02-14T03:53:09.167Z,76.60
2023-02-14T03:54:09.136Z,66.70
2023-02-14T03:55:09.104Z,89.30
2023-02-14T03:56:09.098Z,54.30
2023-02-14T03:57:09.124Z,48.00
2023-02-14T03:58:09.107Z,121.70
2023-02-14T03:59:09.061Z,85.60
2023-02-14T04:00:09.072Z,132.10
2023-02-14T04:01:09.038Z,78.40
2023-02-14T04:02:09.067Z,73.00
2023-02-14T04:03:09.055Z,79.50
2023-02-14T04:04:09.029Z,80.10
2023-02-14T04:05:09.038Z,59.50
2023-02-14T04:06:08.984Z,30.60
2023-02-14T04:07:09.025Z,96.70
2023-02-14T04:08:08.967Z,56.50
2023-02-14T04:09:08.959Z,65.30
2023-02-14T04:10:08.994Z,103.50
2023-02-14T04:11:09.906Z,108.50
2023-02-14T04:12:08.910Z,71.40
2023-02-14T04:13:08.936Z,82.90
2023-02-14T04:14:08.905Z,120.70
2023-02-14T04:15:08.940Z,197.30
2023-02-14T04:16:08.941Z,130.60
2023-02-14T04:17:08.861Z,97.50
2023-02-14T04:18:08.855Z,74.70
2023-02-14T04:19:08.831Z,91.80
2023-02-14T04:20:08.838Z,127.00
2023-02-14T04:21:08.846Z,127.90
2023-02-14T04:22:08.820Z,98.20
2023-02-14T04:23:08.855Z,161.40
2023-02-14T04:24:08.767Z,143.60
2023-02-14T04:25:08.770Z,136.50
2023-02-14T04:26:08.763Z,132.60
2023-02-14T04:27:08.729Z,66.60
2023-02-14T04:28:08.791Z,63.60
2023-02-14T04:29:08.724Z,65.60
2023-02-14T04:30:08.725Z,66.60
2023-02-14T04:31:08.761Z,120.50
2023-02-14T04:32:08.967Z,59.10
2023-02-14T04:33:08.708Z,57.40
2023-02-14T04:34:08.652Z,51.00
2023-02-14T04:35:08.655Z,62.20
2023-02-14T04:36:08.638Z,30.30
2023-02-14T04:37:08.670Z,33.80
2023-02-14T04:38:08.683Z,29.50
2023-02-14T04:39:08.619Z,53.60
2023-02-14T04:40:08.586Z,28.00
2023-02-14T04:41:08.599Z,28.70
2023-02-14T04:42:08.568Z,24.90
2023-02-14T04:43:08.542Z,22.50
2023-02-14T04:44:08.570Z,26.90
2023-02-14T04:45:08.586Z,35.80
2023-02-14T04:46:08.579Z,78.70
2023-02-14T04:47:08.518Z,29.10
2023-02-14T04:48:08.528Z,26.20
2023-02-14T04:49:08.501Z,25.20
2023-02-14T04:50:08.517Z,33.20
2023-02-14T04:51:08.528Z,19.20
2023-02-14T04:52:08.460Z,30.40
2023-02-14T04:53:08.436Z,32.80
2023-02-14T04:54:08.422Z,31.00
2023-02-14T04:55:08.420Z,31.90
2023-02-14T04:56:08.453Z,24.90
2023-02-14T04:57:08.407Z,25.90
2023-02-14T04:58:08.402Z,30.30
2023-02-14T04:59:08.371Z,43.90
2023-02-14T05:00:08.404Z,25.90
2023-02-14T05:01:08.384Z,31.90
2023-02-14T05:02:08.377Z,25.10
2023-02-14T05:03:08.355Z,24.40
2023-02-14T05:04:08.313Z,25.60
2023-02-14T05:05:08.342Z,26.70
2023-02-14T05:06:08.307Z,27.90
2023-02-14T05:07:08.306Z,29.20
2023-02-14T05:08:08.309Z,36.20
2023-02-14T05:09:08.273Z,33.00
2023-02-14T05:10:08.288Z,73.50
2023-02-14T05:11:08.226Z,24.00
2023-02-14T05:12:08.263Z,58.10
2023-02-14T05:13:08.236Z,31.00
2023-02-14T05:14:08.225Z,23.00
2023-02-14T05:15:08.208Z,25.90
2023-02-14T05:16:08.226Z,21.90
2023-02-14T05:17:08.235Z,25.20
2023-02-14T05:18:08.167Z,21.50
2023-02-14T05:19:08.167Z,21.60
2023-02-14T05:20:08.165Z,19.80
2023-02-14T05:21:08.126Z,18.80
2023-02-14T05:22:08.148Z,17.90
2023-02-14T05:23:08.107Z,18.10
2023-02-14T05:24:08.104Z,23.90
2023-02-14T05:25:08.069Z,23.00
2023-02-14T05:26:08.054Z,18.50
2023-02-14T05:27:08.120Z,20.70
2023-02-14T05:28:08.050Z,20.50
2023-02-14T05:29:08.041Z,19.90
2023-02-14T05:30:08.115Z,28.80
2023-02-14T05:31:08.228Z,27.70
2023-02-14T05:32:08.020Z,19.00
2023-02-14T05:33:07.991Z,21.70
2023-02-14T05:34:07.987Z,18.60
2023-02-14T05:35:07.984Z,23.80
2023-02-14T05:36:07.962Z,29.40
2023-02-14T05:37:07.989Z,20.40
2023-02-14T05:38:07.928Z,30.50
2023-02-14T05:39:07.929Z,21.80
2023-02-14T05:40:07.941Z,17.70
2023-02-14T05:41:07.914Z,19.10
2023-02-14T05:42:42.302Z,25.90
2023-02-14T05:43:42.272Z,31.70
2023-02-14T05:44:42.387Z,30.40
2023-02-14T05:45:42.320Z,22.50
2023-02-14T05:46:42.246Z,18.80
2023-02-14T05:47:42.234Z,19.40
2023-02-14T05:48:42.229Z,23.20
2023-02-14T05:49:42.215Z,19.50
2023-02-14T05:50:42.229Z,30.80
2023-02-14T05:51:42.188Z,26.00
2023-02-14T05:52:42.175Z,28.60
2023-02-14T05:53:42.193Z,26.00
2023-02-14T05:54:42.154Z,45.00
2023-02-14T05:55:42.148Z,22.00
2023-02-14T05:56:42.163Z,20.30
2023-02-14T05:57:42.129Z,18.70
2023-02-14T05:58:42.100Z,19.80
2023-02-14T05:59:42.100Z,15.40
2023-02-14T06:00:42.093Z,20.80
2023-02-14T06:01:42.072Z,22.10
2023-02-14T06:02:42.120Z,23.40
2023-02-14T06:03:42.073Z,19.30
2023-02-14T06:04:42.109Z,19.20
2023-02-14T06:05:42.040Z,19.70
2023-02-14T06:06:42.024Z,18.80
2023-02-14T06:07:42.020Z,16.80
2023-02-14T06:08:42.030Z,15.40
2023-02-14T06:09:41.971Z,19.40
2023-02-14T06:10:41.985Z,16.20
2023-02-14T06:11:41.952Z,17.80
2023-02-14T06:12:41.960Z,21.70
2023-02-14T06:13:41.941Z,18.50
2023-02-14T06:14:41.923Z,20.80
2023-02-14T06:15:41.906Z,50.90
2023-02-14T06:16:41.972Z,58.10
2023-02-14T06:17:41.902Z,62.70
2023-02-14T06:18:41.908Z,150.60
2023-02-14T06:19:41.868Z,39.90
2023-02-14T06:20:41.905Z,40.30
2023-02-14T06:21:41.876Z,37.40
2023-02-14T06:22:41.839Z,28.90
2023-02-14T06:23:41.833Z,26.60
2023-02-14T06:24:41.847Z,23.60
2023-02-14T06:25:41.843Z,57.20
2023-02-14T06:26:41.798Z,28.80
2023-02-14T06:27:41.824Z,31.60
2023-02-14T06:28:41.787Z,37.30
2023-02-14T06:29:41.772Z,78.70
2023-02-14T06:30:41.981Z,77.80
2023-02-14T06:31:41.817Z,86.90
2023-02-14T06:32:41.746Z,59.70
2023-02-14T06:33:41.736Z,82.00
2023-02-14T06:34:41.686Z,111.00
2023-02-14T06:35:41.690Z,103.00
2023-02-14T06:36:41.813Z,66.70
2023-02-14T06:37:41.656Z,134.60
2023-02-14T06:38:41.680Z,60.10
2023-02-14T06:39:41.657Z,48.20
2023-02-14T06:40:41.736Z,178.90
2023-02-14T06:41:41.634Z,58.50
2023-02-14T06:42:41.600Z,55.50
2023-02-14T06:43:41.643Z,38.90
2023-02-14T06:44:41.581Z,38.90
2023-02-14T06:45:41.623Z,34.00
2023-02-14T06:46:41.591Z,24.50
2023-02-14T06:47:41.553Z,23.10
2023-02-14T06:48:41.542Z,34.10
2023-02-14T06:49:41.537Z,23.10
2023-02-14T06:50:41.613Z,19.70
2023-02-14T06:51:41.532Z,19.50
2023-02-14T06:52:41.513Z,17.40
2023-02-14T06:53:41.482Z,17.40
2023-02-14T06:54:41.529Z,17.80
2023-02-14T06:55:43.592Z,24.90
2023-02-14T06:56:41.512Z,28.60
2023-02-14T06:57:41.457Z,42.30
2023-02-14T06:58:41.451Z,38.40
2023-02-14T06:59:41.411Z,36.50
2023-02-14T07:00:41.408Z,36.40
2023-02-14T07:01:41.461Z,42.10
2023-02-14T07:02:41.459Z,84.80
2023-02-14T07:03:41.367Z,45.20
2023-02-14T07:04:41.361Z,35.90
2023-02-14T07:05:41.364Z,26.40
2023-02-14T07:06:41.322Z,68.20
2023-02-14T07:07:41.382Z,27.50
2023-02-14T07:08:41.326Z,20.10
2023-02-14T07:09:41.306Z,21.60
2023-02-14T07:10:41.285Z,47.30
2023-02-14T07:11:41.262Z,101.20
2023-02-14T07:12:41.296Z,71.90
2023-02-14T07:13:41.282Z,34.70
2023-02-14T07:14:41.261Z,50.60
2023-02-14T07:15:41.256Z,57.90
2023-02-14T07:16:41.227Z,89.20
2023-02-14T07:17:41.202Z,48.50
2023-02-14T07:18:41.242Z,41.70
2023-02-14T07:19:41.201Z,45.80
2023-02-14T07:20:41.177Z,51.70
2023-02-14T07:21:41.155Z,90.60
2023-02-14T07:22:41.173Z,112.70
2023-02-14T07:23:41.155Z,70.20
2023-02-14T07:24:41.139Z,32.80
2023-02-14T07:25:41.139Z,35.80
2023-02-14T07:26:41.108Z,40.30
2023-02-14T07:27:41.110Z,28.10
2023-02-14T07:28:41.106Z,28.90
2023-02-14T07:29:41.086Z,37.00
2023-02-14T07:30:41.127Z,24.80
2023-02-14T07:31:41.246Z,20.00
2023-02-14T07:32:41.052Z,22.90
2023-02-14T07:33:41.057Z,24.10
2023-02-14T07:34:41.044Z,27.90
2023-02-14T07:35:41.060Z,46.90
2023-02-14T07:36:41.045Z,20.70
2023-02-14T07:37:41.024Z,21.50
2023-02-14T07:38:40.965Z,20.10
2023-02-14T07:39:40.947Z,17.70
2023-02-14T07:40:40.957Z,20.40
2023-02-14T07:41:40.944Z,20.70
2023-02-14T07:42:41.022Z,20.80
2023-02-14T07:43:40.936Z,20.30
2023-02-14T07:44:40.900Z,21.20
2023-02-14T07:45:40.891Z,17.50
2023-02-14T07:46:40.909Z,19.90
2023-02-14T07:47:40.941Z,28.80
2023-02-14T07:48:40.884Z,26.10
2023-02-14T07:49:40.887Z,21.10
2023-02-14T07:50:40.927Z,20.70
2023-02-14T07:51:40.854Z,20.40
2023-02-14T07:52:40.869Z,16.80
2023-02-14T07:53:40.823Z,22.30
2023-02-14T07:54:40.823Z,19.40
2023-02-14T07:55:40.770Z,20.70
2023-02-14T07:56:40.754Z,16.60
2023-02-14T07:57:40.767Z,17.90
2023-02-14T07:58:40.791Z,18.00
2023-02-14T07:59:40.759Z,16.50
2023-02-14T08:00:40.710Z,17.20
2023-02-14T08:01:40.818Z,17.20
2023-02-14T08:02:40.683Z,17.80
2023-02-14T08:03:40.821Z,20.30
2023-02-14T08:04:40.691Z,17.30
2023-02-14T08:05:40.685Z,17.00
2023-02-14T08:06:40.638Z,16.40
2023-02-14T08:07:40.665Z,16.20
2023-02-14T08:08:40.677Z,19.00
2023-02-14T08:09:40.614Z,15.70
2023-02-14T08:10:40.615Z,16.10
2023-02-14T08:11:40.608Z,17.50
2023-02-14T08:12:40.653Z,17.00
2023-02-14T08:13:40.699Z,15.10
2023-02-14T08:14:40.567Z,15.90
2023-02-14T08:15:40.568Z,18.20
2023-02-14T08:16:40.528Z,15.50
2023-02-14T08:17:40.552Z,16.30
2023-02-14T08:18:40.575Z,17.80
2023-02-14T08:19:40.512Z,17.40
2023-02-14T08:20:40.535Z,19.50
2023-02-14T08:21:40.488Z,21.60
2023-02-14T08:22:40.519Z,17.10
2023-02-14T08:23:40.449Z,20.70
2023-02-14T08:24:40.483Z,17.80
2023-02-14T08:25:40.465Z,16.10
2023-02-14T08:26:40.428Z,18.10
2023-02-14T08:27:40.423Z,22.40
2023-02-14T08:28:40.464Z,19.20
2023-02-14T08:29:40.393Z,17.20
2023-02-14T08:30:40.384Z,16.60
2023-02-14T08:31:40.421Z,16.40
2023-02-14T08:32:40.449Z,15.80
2023-02-14T08:33:40.384Z,15.60
2023-02-14T08:34:40.361Z,17.00
2023-02-14T08:35:40.330Z,17.30
2023-02-14T08:36:40.314Z,17.30
2023-02-14T08:37:40.321Z,16.80
2023-02-14T08:38:40.312Z,16.10
2023-02-14T08:39:40.297Z,15.70
2023-02-14T08:40:40.315Z,14.60
2023-02-14T08:41:40.231Z,16.20
2023-02-14T08:42:40.254Z,14.90
2023-02-14T08:43:40.221Z,16.40
2023-02-14T08:44:40.241Z,15.10
2023-02-14T08:45:40.196Z,16.30
2023-02-14T08:46:40.233Z,14.90
2023-02-14T08:47:40.201Z,15.20
2023-02-14T08:48:40.253Z,15.80
2023-02-14T08:49:40.161Z,15.00
2023-02-14T08:50:40.222Z,17.00
2023-02-14T08:51:40.177Z,15.60
2023-02-14T08:52:40.163Z,23.00
2023-02-14T08:53:40.136Z,16.50
2023-02-14T08:55:17.532Z,21.20
2023-02-14T08:56:17.415Z,16.90
2023-02-14T08:57:17.438Z,17.60
2023-02-14T08:58:17.407Z,18.20
2023-02-14T08:59:17.445Z,18.70
2023-02-14T09:00:17.393Z,17.60
2023-02-14T09:01:17.433Z,15.10
2023-02-14T09:02:49.508Z,16.10
2023-02-14T09:03:49.392Z,18.00
2023-02-14T09:04:49.329Z,15.60
2023-02-14T09:05:49.310Z,17.10
2023-02-14T09:06:49.374Z,15.90
2023-02-14T09:07:49.299Z,17.10
2023-02-14T09:08:49.343Z,14.20
2023-02-14T09:09:49.309Z,15.00
2023-02-14T09:10:49.278Z,15.60
2023-02-14T09:11:49.284Z,15.80
2023-02-14T09:12:49.243Z,15.70
2023-02-14T09:13:49.253Z,17.90
2023-02-14T09:14:49.220Z,20.00
2023-02-14T09:15:49.232Z,15.30
2023-02-14T09:16:49.284Z,15.60
2023-02-14T09:17:49.230Z,18.20
2023-02-14T09:18:49.241Z,19.70
2023-02-14T09:19:49.196Z,17.70
2023-02-14T09:21:22.113Z,15.20
2023-02-14T09:22:22.668Z,16.90
2023-02-14T09:23:21.932Z,16.60
2023-02-14T09:24:21.907Z,15.90
2023-02-14T09:25:21.875Z,17.10
2023-02-14T09:26:21.929Z,20.30
2023-02-14T09:27:21.853Z,16.50
2023-02-14T09:28:21.859Z,16.90
2023-02-14T09:29:21.839Z,16.70
2023-02-14T09:30:21.915Z,17.20
2023-02-14T09:31:21.961Z,18.40
2023-02-14T09:32:21.897Z,20.40
2023-02-14T09:33:21.806Z,18.20
2023-02-14T09:34:21.790Z,16.50
2023-02-14T09:35:21.791Z,16.70
2023-02-14T09:36:21.761Z,16.30
2023-02-14T09:38:17.174Z,14.60
2023-02-14T09:39:17.197Z,15.20
2023-02-14T09:40:17.142Z,13.80
2023-02-14T09:41:17.169Z,18.50
2023-02-14T09:42:17.107Z,18.50
2023-02-14T09:43:17.145Z,16.10
2023-02-14T09:44:17.125Z,15.40
2023-02-14T09:45:17.076Z,17.10
2023-02-14T09:46:17.117Z,19.30
2023-02-14T09:47:17.066Z,17.00
2023-02-14T09:48:17.037Z,17.10
2023-02-14T09:49:17.246Z,20.10
2023-02-14T09:50:17.047Z,16.90
2023-02-14T09:51:17.046Z,16.90
2023-02-14T09:52:17.010Z,16.80
2023-02-14T09:53:16.997Z,14.80
2023-02-14T09:54:16.990Z,16.00
2023-02-14T09:55:17.005Z,20.90
2023-02-14T09:56:16.977Z,15.10
2023-02-14T09:57:16.971Z,17.00
2023-02-14T09:58:16.967Z,14.10
2023-02-14T09:59:16.956Z,17.20
2023-02-14T10:00:16.941Z,18.30
2023-02-14T10:01:17.019Z,16.70
2023-02-14T10:02:16.982Z,16.30
2023-02-14T10:03:16.885Z,15.40
2023-02-14T10:04:16.876Z,16.70
2023-02-14T10:05:16.872Z,18.40
2023-02-14T10:06:16.864Z,19.80
2023-02-14T10:07:19.880Z,18.10
2023-02-14T10:08:16.830Z,19.80
2023-02-14T10:09:16.825Z,16.70
2023-02-14T10:10:16.793Z,17.90
2023-02-14T10:11:16.797Z,17.70
2023-02-14T10:12:16.839Z,20.70
2023-02-14T10:13:16.818Z,15.90
2023-02-14T10:14:16.755Z,15.50
2023-02-14T10:15:16.730Z,17.60
2023-02-14T10:16:16.761Z,16.50
2023-02-14T10:17:16.756Z,18.80
2023-02-14T10:18:16.727Z,17.10
2023-02-14T10:19:16.726Z,18.40
2023-02-14T10:20:16.666Z,19.90
2023-02-14T10:21:16.709Z,19.20
2023-02-14T10:22:16.698Z,15.50
2023-02-14T10:23:16.668Z,17.70
2023-02-14T10:24:16.671Z,16.70
2023-02-14T10:25:16.615Z,15.50
2023-02-14T10:26:16.649Z,18.40
2023-02-14T10:27:16.637Z,17.30
2023-02-14T10:28:17.053Z,18.30
2023-02-14T10:29:16.615Z,17.40
2023-02-14T10:30:16.651Z,22.00
2023-02-14T10:31:16.668Z,18.30
2023-02-14T10:32:16.553Z,18.00
2023-02-14T10:33:16.579Z,18.70
2023-02-14T10:34:16.592Z,19.20
2023-02-14T10:35:16.543Z,19.40
2023-02-14T10:36:16.564Z,18.50
2023-02-14T10:37:16.511Z,17.20
2023-02-14T10:38:16.490Z,15.00
2023-02-14T10:39:16.472Z,15.50
2023-02-14T10:40:17.507Z,14.90
2023-02-14T10:41:16.448Z,13.70
2023-02-14T10:42:16.427Z,12.40
2023-02-14T10:43:16.433Z,13.40
2023-02-14T10:44:16.445Z,13.00
2023-02-14T10:45:16.417Z,12.10
2023-02-14T10:46:18.085Z,15.10
2023-02-14T10:47:16.417Z,14.90
2023-02-14T10:48:16.413Z,12.90
2023-02-14T10:49:16.346Z,14.80
2023-02-14T10:50:16.402Z,13.10
2023-02-14T10:51:16.471Z,13.10
2023-02-14T10:52:16.336Z,12.10
2023-02-14T10:53:16.302Z,13.20
2023-02-14T10:54:16.302Z,14.90
2023-02-14T10:55:31.540Z,11.50
2023-02-14T10:56:17.341Z,10.60
2023-02-14T10:57:16.275Z,10.70
2023-02-14T10:58:16.236Z,9.70
2023-02-14T10:59:16.227Z,10.30
2023-02-14T11:00:16.235Z,11.00
2023-02-14T11:01:16.301Z,11.20
2023-02-14T11:02:16.254Z,9.80
2023-02-14T11:03:16.260Z,9.40
2023-02-14T11:04:16.328Z,9.20
2023-02-14T11:05:16.174Z,9.40
2023-02-14T11:06:16.168Z,8.60
2023-02-14T11:07:16.131Z,9.80
2023-02-14T11:08:16.155Z,11.00
2023-02-14T11:09:16.181Z,11.30
2023-02-14T11:10:16.088Z,8.70
2023-02-14T11:11:16.158Z,8.60
2023-02-14T11:12:16.093Z,9.60
2023-02-14T11:13:16.093Z,11.30
2023-02-14T11:14:17.330Z,9.40
2023-02-14T11:15:16.042Z,11.00
2023-02-14T11:16:16.055Z,8.90
2023-02-14T11:17:16.044Z,7.90
2023-02-14T11:18:16.058Z,9.70
2023-02-14T11:19:16.055Z,8.90
2023-02-14T11:20:16.001Z,8.80
2023-02-14T11:21:15.987Z,9.40
2023-02-14T11:22:15.955Z,8.60
2023-02-14T11:23:15.997Z,10.40
2023-02-14T11:24:15.983Z,8.70
2023-02-14T11:25:15.936Z,8.90
2023-02-14T11:26:15.953Z,9.20
2023-02-14T11:27:15.910Z,9.20
2023-02-14T11:28:15.899Z,10.40
2023-02-14T11:29:15.918Z,9.70
2023-02-14T11:30:15.915Z,11.30
2023-02-14T11:31:15.960Z,9.00
2023-02-14T11:32:15.885Z,8.60
2023-02-14T11:33:21.651Z,9.80
2023-02-14T11:34:15.865Z,11.50
2023-02-14T11:35:15.846Z,8.80
2023-02-14T11:36:15.807Z,9.30
2023-02-14T11:37:15.795Z,10.20
2023-02-14T11:38:15.802Z,9.40
2023-02-14T11:39:15.911Z,10.80
2023-02-14T11:40:15.750Z,9.40
2023-02-14T11:41:15.743Z,11.10
2023-02-14T11:42:15.750Z,10.40
2023-02-14T11:43:15.733Z,12.70
2023-02-14T11:44:15.946Z,9.30
2023-02-14T11:45:15.734Z,11.20
2023-02-14T11:46:15.745Z,9.60
2023-02-14T11:47:15.672Z,8.90
2023-02-14T11:48:17.778Z,9.40
2023-02-14T11:49:15.691Z,10.70
2023-02-14T11:50:15.664Z,10.70
2023-02-14T11:51:15.683Z,10.80
2023-02-14T11:52:15.805Z,10.40
2023-02-14T11:53:15.725Z,10.80
2023-02-14T11:54:15.614Z,11.20
2023-02-14T11:55:15.585Z,10.90
2023-02-14T11:56:15.614Z,34.80
2023-02-14T11:57:15.564Z,20.20
2023-02-14T11:58:15.550Z,11.10
2023-02-14T11:59:15.598Z,12.70
2023-02-14T12:00:15.534Z,9.40
2023-02-14T12:01:15.548Z,14.20
2023-02-14T12:02:15.590Z,9.60
2023-02-14T12:03:15.551Z,9.80
2023-02-14T12:04:15.500Z,9.70
2023-02-14T12:05:15.509Z,8.80
2023-02-14T12:06:15.475Z,9.50
2023-02-14T12:07:15.477Z,7.80
2023-02-14T12:08:15.497Z,9.30
2023-02-14T12:09:15.436Z,10.10
2023-02-14T12:10:15.440Z,10.10
2023-02-14T12:11:15.418Z,9.80
2023-02-14T12:12:15.406Z,9.30
2023-02-14T12:13:15.406Z,7.20
2023-02-14T12:14:15.393Z,7.50
2023-02-14T12:15:15.408Z,7.00
2023-02-14T12:16:15.385Z,8.40
2023-02-14T12:17:15.356Z,7.60
2023-02-14T12:18:15.338Z,7.00
2023-02-14T12:19:15.309Z,6.30
2023-02-14T12:20:15.334Z,7.10
2023-02-14T12:21:15.362Z,8.50
2023-02-14T12:22:15.285Z,9.10
2023-02-14T12:23:15.278Z,7.30
2023-02-14T12:24:15.286Z,10.50
2023-02-14T12:25:15.292Z,6.90
2023-02-14T12:26:15.276Z,12.20
2023-02-14T12:27:15.241Z,7.40
2023-02-14T12:28:15.227Z,8.90
2023-02-14T12:29:15.219Z,9.10
2023-02-14T12:30:15.222Z,6.50
2023-02-14T12:31:15.298Z,14.40
2023-02-14T12:32:15.242Z,7.90
2023-02-14T12:33:15.138Z,8.50
2023-02-14T12:34:15.144Z,7.90
2023-02-14T12:35:15.166Z,8.70
2023-02-14T12:36:15.163Z,7.50
2023-02-14T12:37:15.131Z,9.80
2023-02-14T12:38:15.080Z,8.40
2023-02-14T12:39:15.110Z,7.50
2023-02-14T12:40:15.136Z,12.90
2023-02-14T12:41:15.129Z,6.90
2023-02-14T12:42:15.068Z,20.50
2023-02-14T12:43:15.046Z,20.60
2023-02-14T12:44:15.046Z,9.80
2023-02-14T12:45:15.010Z,8.60
2023-02-14T12:46:15.061Z,7.30
2023-02-14T12:47:15.088Z,7.30
2023-02-14T12:48:16.612Z,7.20
2023-02-14T12:49:14.969Z,7.00
2023-02-14T12:50:14.999Z,10.30
2023-02-14T12:51:15.012Z,6.70
2023-02-14T12:52:14.954Z,9.00
2023-02-14T12:53:14.966Z,8.40
2023-02-14T12:54:14.907Z,8.90
2023-02-14T12:55:15.003Z,8.60
2023-02-14T12:56:14.915Z,10.40
2023-02-14T12:57:14.924Z,7.30